Time;durP1;ratioP1;P1;durP2;ratioP2;P2;SDS_P1;SDS_P2;PMS_P1;PMS_P2;Temp;Humidity;BMP_temperature;BMP_pressure;BME280_temperature;BME280_humidity;BME280_pressure;Samples;Min_cycle;Max_cycle;Signal;HPM_P1;HPM_P2
2023/04/23 00:01:13;;;;;;;18.42;11.82;;;7.10;80.00;;;;;;5076081;28;20390;-77
2023/04/23 00:03:41;;;;;;;16.92;9.55;;;7.10;80.50;;;;;;5075931;28;20024;-77
2023/04/23 00:06:11;;;;;;;13.35;9.25;;;7.00;81.40;;;;;;5074823;28;20029;-78
2023/04/23 00:08:39;;;;;;;15.10;9.38;;;7.00;80.70;;;;;;5074524;28;20454;-78
2023/04/23 00:11:05;;;;;;;18.77;10.82;;;7.00;79.80;;;;;;5075945;28;20036;-77
2023/04/23 00:13:31;;;;;;;15.32;10.73;;;6.90;80.20;;;;;;5074572;28;20070;-77
2023/04/23 00:15:57;;;;;;;16.80;9.85;;;6.90;81.00;;;;;;5074458;28;20027;-77
2023/04/23 00:18:23;;;;;;;17.90;9.80;;;6.80;82.00;;;;;;5075732;28;20037;-77
2023/04/23 00:20:48;;;;;;;16.75;10.57;;;6.70;82.90;;;;;;5075823;28;20025;-77
2023/04/23 00:23:14;;;;;;;17.88;10.98;;;6.70;83.80;;;;;;5075767;28;20377;-77
2023/04/23 00:25:40;;;;;;;14.35;9.75;;;6.60;85.20;;;;;;5075533;28;20040;-78
2023/04/23 00:28:05;;;;;;;12.48;8.15;;;6.60;84.90;;;;;;5075684;28;20060;-77
2023/04/23 00:30:31;;;;;;;15.65;9.95;;;6.60;83.10;;;;;;5075478;28;20028;-78
2023/04/23 00:32:57;;;;;;;13.30;8.70;;;6.60;81.50;;;;;;5073987;28;20052;-77
2023/04/23 00:35:22;;;;;;;17.25;9.95;;;6.60;81.30;;;;;;5074261;28;20559;-77
2023/04/23 00:37:48;;;;;;;15.70;9.77;;;6.60;81.90;;;;;;5074985;28;20367;-78
2023/04/23 00:40:13;;;;;;;16.27;10.48;;;6.50;83.50;;;;;;5075342;28;20025;-77
2023/04/23 00:42:39;;;;;;;17.20;9.63;;;6.50;83.10;;;;;;5073831;28;20497;-78
2023/04/23 00:45:07;;;;;;;17.17;11.43;;;6.40;83.20;;;;;;5075272;28;20078;-77
2023/04/23 00:47:33;;;;;;;16.25;11.00;;;6.40;84.50;;;;;;5073878;28;20478;-78
2023/04/23 00:49:59;;;;;;;15.75;10.90;;;6.20;85.00;;;;;;5073762;28;20020;-77
2023/04/23 00:52:25;;;;;;;18.40;11.02;;;6.20;85.50;;;;;;5075082;28;20090;-77
2023/04/23 00:54:50;;;;;;;16.77;9.82;;;6.20;85.30;;;;;;5073761;28;20036;-77
2023/04/23 00:57:17;;;;;;;15.32;10.73;;;6.20;85.00;;;;;;5074914;28;20025;-77
2023/04/23 00:59:43;;;;;;;16.50;9.50;;;6.20;84.80;;;;;;5073574;28;20036;-77
2023/04/23 01:02:09;;;;;;;15.50;10.10;;;6.20;84.10;;;;;;5073605;28;20047;-77
2023/04/23 01:04:36;;;;;;;15.10;9.82;;;6.20;83.60;;;;;;5074886;28;20017;-77
2023/04/23 01:07:02;;;;;;;17.60;10.15;;;6.10;84.20;;;;;;5074772;28;20029;-78
2023/04/23 01:09:28;;;;;;;21.05;10.60;;;6.10;84.60;;;;;;5073379;28;20029;-78
2023/04/23 01:11:56;;;;;;;18.52;11.45;;;6.10;84.60;;;;;;5073272;28;20035;-77
2023/04/23 01:14:22;;;;;;;18.00;12.07;;;6.00;85.50;;;;;;5074741;28;20100;-77
2023/04/23 01:16:48;;;;;;;20.73;11.13;;;5.90;86.10;;;;;;5073223;28;20052;-78
2023/04/23 01:19:14;;;;;;;17.63;10.52;;;5.70;88.50;;;;;;5073153;28;20451;-77
2023/04/23 01:21:41;;;;;;;16.35;10.73;;;5.70;90.80;;;;;;5073095;28;20056;-78
2023/04/23 01:24:08;;;;;;;18.48;10.65;;;5.70;91.50;;;;;;5074407;28;20078;-77
2023/04/23 01:26:34;;;;;;;17.80;10.50;;;5.70;91.20;;;;;;5074410;28;20027;-77
2023/04/23 01:29:00;;;;;;;18.95;10.52;;;5.60;90.90;;;;;;5074399;28;20095;-77
2023/04/23 01:31:29;;;;;;;14.57;9.57;;;5.60;91.10;;;;;;5074309;28;20031;-78
2023/04/23 01:33:56;;;;;;;15.05;9.77;;;5.60;91.40;;;;;;5073286;28;20063;-77
2023/04/23 01:36:23;;;;;;;15.77;9.13;;;5.60;90.70;;;;;;5073554;28;20099;-77
2023/04/23 01:38:48;;;;;;;19.85;11.52;;;5.60;90.10;;;;;;5072485;28;20032;-77
2023/04/23 01:41:14;;;;;;;14.68;9.40;;;5.60;90.10;;;;;;5072720;28;20066;-78
2023/04/23 01:43:44;;;;;;;13.38;9.75;;;5.50;89.90;;;;;;5071706;28;20055;-78
2023/04/23 01:46:10;;;;;;;11.65;9.23;;;5.50;90.60;;;;;;5071406;28;20024;-77
2023/04/23 01:48:36;;;;;;;16.52;9.90;;;5.40;90.70;;;;;;5071009;28;20025;-77
2023/04/23 01:51:03;;;;;;;16.70;10.75;;;5.40;91.80;;;;;;5071768;28;20043;-78
2023/04/23 01:53:28;;;;;;;12.82;9.95;;;5.30;92.60;;;;;;5073670;28;20508;-77
2023/04/23 01:55:55;;;;;;;15.20;9.75;;;5.30;93.50;;;;;;5072153;28;20029;-77
2023/04/23 01:58:22;;;;;;;18.15;9.63;;;5.30;93.20;;;;;;5073029;28;20121;-77
2023/04/23 02:00:48;;;;;;;15.18;9.60;;;5.30;94.30;;;;;;5073637;28;20021;-76
2023/04/23 02:03:14;;;;;;;13.55;9.23;;;5.30;94.90;;;;;;5073682;28;20104;-78
2023/04/23 02:05:40;;;;;;;13.52;8.90;;;5.20;94.10;;;;;;5073271;28;20066;-77
2023/04/23 02:08:07;;;;;;;17.35;9.60;;;5.20;94.10;;;;;;5070405;28;20031;-77
2023/04/23 02:10:32;;;;;;;13.68;9.43;;;5.20;94.60;;;;;;5072355;28;20397;-77
2023/04/23 02:12:59;;;;;;;13.40;9.32;;;5.10;95.50;;;;;;5071766;28;20024;-76
2023/04/23 02:15:24;;;;;;;16.70;9.13;;;5.10;96.50;;;;;;5071265;28;20025;-78
2023/04/23 02:17:51;;;;;;;14.13;9.48;;;5.00;97.20;;;;;;5072928;28;20477;-77
2023/04/23 02:20:17;;;;;;;12.80;8.63;;;5.00;97.60;;;;;;5072215;28;20067;-78
2023/04/23 02:22:43;;;;;;;16.95;9.25;;;5.00;97.50;;;;;;5071739;28;20017;-78
2023/04/23 02:25:09;;;;;;;13.70;9.10;;;4.90;97.70;;;;;;5072183;28;20028;-77
2023/04/23 02:27:35;;;;;;;11.48;8.75;;;4.90;97.60;;;;;;5073290;28;20523;-77
2023/04/23 02:30:02;;;;;;;11.98;8.77;;;4.90;97.70;;;;;;5073482;28;20104;-77
2023/04/23 02:32:27;;;;;;;16.02;9.82;;;4.90;98.40;;;;;;5073260;28;20510;-77
2023/04/23 02:34:53;;;;;;;13.45;10.18;;;4.80;99.20;;;;;;5072195;28;20067;-77
2023/04/23 02:37:20;;;;;;;13.10;9.82;;;4.80;99.90;;;;;;5072107;28;20017;-77
2023/04/23 02:39:45;;;;;;;19.58;9.98;;;4.70;99.90;;;;;;5072029;28;20116;-77
2023/04/23 02:42:12;;;;;;;12.00;8.32;;;4.70;99.90;;;;;;5073243;28;20109;-78
2023/04/23 02:44:37;;;;;;;12.63;8.80;;;4.70;99.90;;;;;;5072412;28;20044;-77
2023/04/23 02:47:03;;;;;;;15.18;9.23;;;4.60;99.90;;;;;;5073261;28;20021;-77
2023/04/23 02:49:28;;;;;;;15.90;9.25;;;4.60;99.90;;;;;;5073277;28;20032;-77
2023/04/23 02:51:54;;;;;;;11.93;8.57;;;4.60;99.90;;;;;;5071895;28;20074;-77
2023/04/23 02:54:20;;;;;;;13.23;8.60;;;4.60;99.90;;;;;;5071956;28;20052;-77
2023/04/23 02:56:45;;;;;;;17.02;9.68;;;4.60;99.90;;;;;;5071808;28;20079;-77
2023/04/23 02:59:11;;;;;;;12.65;9.55;;;4.50;99.90;;;;;;5073151;28;20029;-77
2023/04/23 03:01:36;;;;;;;15.40;9.98;;;4.50;99.90;;;;;;5075677;28;20103;-77
2023/04/23 03:04:02;;;;;;;14.25;9.52;;;4.50;99.90;;;;;;5075813;28;20040;-77
2023/04/23 03:06:28;;;;;;;13.82;10.43;;;4.40;99.90;;;;;;5075886;28;20029;-77
2023/04/23 03:08:54;;;;;;;19.10;10.02;;;4.30;99.90;;;;;;5075738;28;20020;-77
2023/04/23 03:11:21;;;;;;;13.68;8.85;;;4.30;99.90;;;;;;5075762;28;20081;-77
2023/04/23 03:13:47;;;;;;;13.10;8.77;;;4.30;99.90;;;;;;5076975;28;20036;-78
2023/04/23 03:16:13;;;;;;;15.45;8.77;;;4.20;99.90;;;;;;5076810;28;20032;-77
2023/04/23 03:18:38;;;;;;;16.38;10.20;;;4.20;99.90;;;;;;5076801;28;20471;-77
2023/04/23 03:21:04;;;;;;;14.63;9.45;;;4.20;99.90;;;;;;5077042;28;20035;-77
2023/04/23 03:23:30;;;;;;;20.38;10.60;;;4.20;99.90;;;;;;5075430;28;20032;-77
2023/04/23 03:25:55;;;;;;;16.65;10.38;;;4.20;99.90;;;;;;5075429;28;20020;-77
2023/04/23 03:28:21;;;;;;;14.65;9.63;;;4.20;99.90;;;;;;5075625;28;20101;-77
2023/04/23 03:30:47;;;;;;;14.70;9.55;;;4.20;99.90;;;;;;5076596;28;20035;-77
2023/04/23 03:33:12;;;;;;;14.02;9.25;;;4.20;99.90;;;;;;5076514;28;20498;-78
2023/04/23 03:35:38;;;;;;;15.65;10.27;;;4.20;99.90;;;;;;5076559;28;20025;-77
2023/04/23 03:38:03;;;;;;;15.57;10.32;;;4.20;99.90;;;;;;5076501;28;20112;-78
2023/04/23 03:40:29;;;;;;;14.30;9.20;;;4.10;99.90;;;;;;5075074;28;20020;-78
2023/04/23 03:42:56;;;;;;;15.77;10.27;;;4.10;99.90;;;;;;5075144;28;20016;-76
2023/04/23 03:45:22;;;;;;;17.77;10.38;;;4.10;99.90;;;;;;5076533;28;20112;-77
2023/04/23 03:47:48;;;;;;;15.15;9.63;;;4.10;99.90;;;;;;5076292;28;20060;-76
2023/04/23 03:50:13;;;;;;;12.25;9.00;;;4.10;99.90;;;;;;5076348;28;20066;-78
2023/04/23 03:52:39;;;;;;;14.05;9.38;;;4.10;99.90;;;;;;5074926;28;20016;-77
2023/04/23 03:55:06;;;;;;;13.40;10.88;;;4.10;99.90;;;;;;5076206;28;20047;-76
2023/04/23 03:57:32;;;;;;;17.98;9.23;;;4.10;99.90;;;;;;5076025;28;20021;-76
2023/04/23 03:59:57;;;;;;;16.55;10.00;;;4.10;99.90;;;;;;5076235;28;20108;-77
2023/04/23 04:02:23;;;;;;;13.90;8.50;;;4.20;99.90;;;;;;5074710;28;20385;-77
2023/04/23 04:04:50;;;;;;;15.35;9.60;;;4.30;99.90;;;;;;5074839;28;20040;-76
2023/04/23 04:07:16;;;;;;;18.33;9.68;;;4.40;99.90;;;;;;5076001;28;20016;-76
2023/04/23 04:09:42;;;;;;;13.45;9.32;;;4.50;99.90;;;;;;5075976;28;20099;-76
2023/04/23 04:12:07;;;;;;;15.23;9.48;;;4.60;99.90;;;;;;5075272;28;20147;-77
2023/04/23 04:14:33;;;;;;;11.70;9.43;;;4.70;99.90;;;;;;5075779;28;20028;-77
2023/04/23 04:16:59;;;;;;;17.55;9.98;;;4.80;99.90;;;;;;5074641;28;20062;-76
2023/04/23 04:19:24;;;;;;;14.82;9.57;;;4.80;99.90;;;;;;5074409;28;20032;-78
2023/04/23 04:21:50;;;;;;;14.48;9.13;;;4.90;99.90;;;;;;5074065;28;20036;-77
2023/04/23 04:24:17;;;;;;;14.43;10.18;;;5.00;99.90;;;;;;5074456;28;20024;-77
2023/04/23 04:26:44;;;;;;;16.15;10.05;;;5.10;99.90;;;;;;5075488;28;20017;-78
2023/04/23 04:29:10;;;;;;;13.68;9.27;;;5.10;99.90;;;;;;5075743;28;20428;-78
2023/04/23 04:31:36;;;;;;;15.73;9.32;;;5.20;99.90;;;;;;5075547;28;20075;-77
2023/04/23 04:34:02;;;;;;;11.75;8.73;;;5.30;99.90;;;;;;5074073;28;20048;-77
2023/04/23 04:36:28;;;;;;;14.00;9.10;;;5.40;99.90;;;;;;5075435;28;20470;-77
2023/04/23 04:38:54;;;;;;;15.95;8.45;;;5.40;99.90;;;;;;5075277;28;20413;-77
2023/04/23 04:41:21;;;;;;;15.07;10.23;;;5.50;99.90;;;;;;5074200;28;20032;-77
2023/04/23 04:43:47;;;;;;;14.70;8.88;;;5.70;99.90;;;;;;5073836;28;20047;-78
2023/04/23 04:46:14;;;;;;;15.35;9.20;;;5.80;99.90;;;;;;5073934;28;20052;-78
2023/04/23 04:48:40;;;;;;;14.93;10.05;;;6.00;99.90;;;;;;5075151;28;20153;-77
2023/04/23 04:51:06;;;;;;;14.65;9.73;;;6.10;99.90;;;;;;5075109;28;20054;-78
2023/04/23 04:53:32;;;;;;;15.00;9.65;;;6.10;99.90;;;;;;5073769;28;20016;-78
2023/04/23 04:55:57;;;;;;;14.90;10.45;;;6.20;99.20;;;;;;5074978;28;20027;-77
2023/04/23 04:58:23;;;;;;;18.98;11.80;;;6.30;99.60;;;;;;5074924;28;20039;-78
2023/04/23 05:00:50;;;;;;;18.92;11.77;;;6.40;99.80;;;;;;5074976;28;20025;-77
2023/04/23 05:03:17;;;;;;;21.30;13.07;;;6.50;99.90;;;;;;5074935;28;20028;-77
2023/04/23 05:05:44;;;;;;;20.85;12.88;;;6.70;99.90;;;;;;5073565;28;20039;-77
2023/04/23 05:08:09;;;;;;;20.63;14.43;;;6.80;99.40;;;;;;5074822;28;20066;-77
2023/04/23 05:10:35;;;;;;;23.20;14.85;;;7.00;98.20;;;;;;5073501;28;20021;-77
2023/04/23 05:13:01;;;;;;;19.77;13.07;;;7.10;97.30;;;;;;5073452;28;20036;-78
2023/04/23 05:15:27;;;;;;;21.70;13.02;;;7.30;96.40;;;;;;5073397;28;20020;-78
2023/04/23 05:17:53;;;;;;;21.92;13.13;;;7.50;95.70;;;;;;5073271;28;20055;-78
2023/04/23 05:20:19;;;;;;;20.83;12.70;;;7.70;94.70;;;;;;5074633;28;20017;-78
2023/04/23 05:22:45;;;;;;;23.25;13.95;;;7.90;93.80;;;;;;5073172;28;20021;-77
2023/04/23 05:25:11;;;;;;;26.50;15.70;;;8.10;96.20;;;;;;5073469;28;20416;-78
2023/04/23 05:27:37;;;;;;;30.30;17.50;;;8.30;99.90;;;;;;5073036;28;20024;-77
2023/04/23 05:30:05;;;;;;;20.65;12.95;;;8.50;99.90;;;;;;5074456;28;20029;-79
2023/04/23 05:32:31;;;;;;;19.25;13.38;;;8.70;99.90;;;;;;5072709;28;20524;-78
2023/04/23 05:34:58;;;;;;;23.48;14.25;;;8.90;99.90;;;;;;5073134;28;20021;-78
2023/04/23 05:37:24;;;;;;;23.15;12.60;;;9.10;99.00;;;;;;5072952;28;20016;-77
2023/04/23 05:39:50;;;;;;;26.48;17.42;;;9.40;98.30;;;;;;5072860;28;20110;-77
2023/04/23 05:42:16;;;;;;;42.60;24.65;;;9.60;98.90;;;;;;5072753;28;20359;-77
2023/04/23 05:44:41;;;;;;;35.92;22.42;;;9.80;98.90;;;;;;5073892;28;20039;-79
2023/04/23 05:47:08;;;;;;;33.60;17.63;;;10.00;99.90;;;;;;5073593;28;20024;-79
2023/04/23 05:49:34;;;;;;;23.63;13.52;;;10.20;99.90;;;;;;5073398;28;20016;-79
2023/04/23 05:52:01;;;;;;;22.73;12.93;;;10.50;99.90;;;;;;5053770;28;20025;-79
2023/04/23 05:54:27;;;;;;;20.08;12.45;;;10.70;99.90;;;;;;5052517;28;20017;-78
2023/04/23 05:56:53;;;;;;;17.85;11.00;;;11.00;99.40;;;;;;5053803;28;20048;-78
2023/04/23 05:59:19;;;;;;;18.23;11.52;;;11.20;95.70;;;;;;5053680;28;20036;-79
2023/04/23 06:01:46;;;;;;;16.05;12.23;;;11.50;93.00;;;;;;5052818;28;20033;-78
2023/04/23 06:04:12;;;;;;;18.90;12.25;;;11.70;86.80;;;;;;5053776;28;20067;-78
2023/04/23 06:06:38;;;;;;;21.23;11.80;;;12.00;85.50;;;;;;5053616;28;20028;-78
2023/04/23 06:09:04;;;;;;;21.63;13.73;;;12.20;75.90;;;;;;5053860;28;20078;-78
2023/04/23 06:11:31;;;;;;;18.13;11.15;;;12.50;72.70;;;;;;5060994;28;20028;-78
2023/04/23 06:13:57;;;;;;;18.08;11.27;;;12.70;70.30;;;;;;5070497;28;20580;-79
2023/04/23 06:16:24;;;;;;;16.67;11.10;;;13.00;68.50;;;;;;5072916;28;20025;-78
2023/04/23 06:18:50;;;;;;;19.38;10.45;;;13.30;67.70;;;;;;5071543;28;20071;-79
2023/04/23 06:21:16;;;;;;;13.13;8.05;;;13.50;66.70;;;;;;5071735;28;20071;-77
2023/04/23 06:23:41;;;;;;;15.60;8.07;;;13.70;62.90;;;;;;5070181;28;20021;-79
2023/04/23 06:26:07;;;;;;;13.45;8.18;;;14.00;61.00;;;;;;5071531;28;20024;-78
2023/04/23 06:28:33;;;;;;;13.45;8.32;;;14.10;58.90;;;;;;5071362;28;20382;-78
2023/04/23 06:30:58;;;;;;;12.65;8.07;;;14.30;59.20;;;;;;5072833;28;20117;-79
2023/04/23 06:33:24;;;;;;;13.52;8.77;;;14.50;59.40;;;;;;5064193;28;20036;-78
2023/04/23 06:35:50;;;;;;;12.85;7.90;;;14.70;58.70;;;;;;5072283;28;20543;-79
2023/04/23 06:38:17;;;;;;;10.45;6.75;;;14.80;56.50;;;;;;5072752;28;20039;-79
2023/04/23 06:40:44;;;;;;;12.48;8.20;;;15.00;56.20;;;;;;5071754;28;20028;-78
2023/04/23 06:43:10;;;;;;;12.25;6.82;;;15.10;56.10;;;;;;5073122;28;20115;-78
2023/04/23 06:45:35;;;;;;;10.52;7.38;;;15.30;55.90;;;;;;5071763;28;20128;-78
2023/04/23 06:48:01;;;;;;;10.98;6.75;;;15.50;55.30;;;;;;5071379;28;20029;-78
2023/04/23 06:50:27;;;;;;;11.38;7.30;;;15.60;54.70;;;;;;5073049;28;20060;-78
2023/04/23 06:52:52;;;;;;;12.52;7.38;;;15.70;52.70;;;;;;5072662;28;20450;-79
2023/04/23 06:55:19;;;;;;;14.40;7.32;;;15.80;52.60;;;;;;5071540;28;20036;-79
2023/04/23 06:57:45;;;;;;;15.45;8.02;;;16.00;53.10;;;;;;5071642;28;20021;-79
2023/04/23 07:00:11;;;;;;;10.90;6.75;;;16.20;54.30;;;;;;5072742;28;20474;-79
2023/04/23 07:02:37;;;;;;;13.68;7.45;;;16.40;53.20;;;;;;5072295;28;20036;-78
2023/04/23 07:05:03;;;;;;;12.00;6.90;;;16.60;53.50;;;;;;5072301;28;20016;-78
2023/04/23 07:07:29;;;;;;;13.07;7.72;;;16.80;54.60;;;;;;5070967;28;20111;-78
2023/04/23 07:09:55;;;;;;;14.70;7.70;;;16.80;52.70;;;;;;5072966;28;20363;-78
2023/04/23 07:12:21;;;;;;;14.98;8.38;;;16.90;51.80;;;;;;5080433;28;20039;-78
2023/04/23 07:14:46;;;;;;;13.25;7.57;;;17.00;52.00;;;;;;5092788;28;20032;-78
2023/04/23 07:17:12;;;;;;;14.48;7.40;;;17.10;52.50;;;;;;5092720;28;20032;-79
2023/04/23 07:19:38;;;;;;;12.02;7.60;;;17.20;51.90;;;;;;5091445;28;20396;-79
2023/04/23 07:22:03;;;;;;;17.48;8.82;;;17.30;52.90;;;;;;5092855;28;20482;-79
2023/04/23 07:24:29;;;;;;;16.08;8.85;;;17.40;52.30;;;;;;5092818;28;20441;-79
2023/04/23 07:26:54;;;;;;;14.15;6.68;;;17.50;51.80;;;;;;5092832;28;20048;-78
2023/04/23 07:29:20;;;;;;;11.25;7.68;;;17.50;50.70;;;;;;5091667;28;20028;-79
2023/04/23 07:31:47;;;;;;;14.30;7.88;;;17.60;51.60;;;;;;5091344;28;20020;-79
2023/04/23 07:34:13;;;;;;;12.98;7.90;;;17.80;51.90;;;;;;5085495;28;20429;-79
2023/04/23 07:36:39;;;;;;;14.02;7.75;;;17.90;51.20;;;;;;5071181;28;20024;-79
2023/04/23 07:39:05;;;;;;;10.20;6.68;;;18.10;51.40;;;;;;5071068;28;20047;-79
2023/04/23 07:41:31;;;;;;;11.38;6.45;;;18.10;50.00;;;;;;5072460;28;20040;-79
2023/04/23 07:43:57;;;;;;;10.48;5.93;;;18.20;48.90;;;;;;5072405;28;20038;-78
2023/04/23 07:46:23;;;;;;;7.63;5.18;;;18.30;49.80;;;;;;5072691;28;20099;-79
2023/04/23 07:48:48;;;;;;;9.48;5.68;;;18.50;49.50;;;;;;5073666;28;20130;-79
2023/04/23 07:51:15;;;;;;;6.32;4.97;;;18.60;48.80;;;;;;5074962;28;20478;-78
2023/04/23 07:53:40;;;;;;;8.05;4.88;;;18.70;48.70;;;;;;5076214;28;20024;-79
2023/04/23 07:56:06;;;;;;;8.27;5.60;;;18.80;46.70;;;;;;5075074;28;20023;-79
2023/04/23 07:58:32;;;;;;;8.05;4.95;;;18.90;46.90;;;;;;5076083;28;20397;-79
2023/04/23 08:00:57;;;;;;;8.63;5.00;;;19.00;46.50;;;;;;5074568;28;20608;-79
2023/04/23 08:03:23;;;;;;;6.63;4.70;;;19.00;45.50;;;;;;5075820;28;20393;-79
2023/04/23 08:05:49;;;;;;;9.45;6.70;;;19.10;45.90;;;;;;5074604;28;20028;-79
2023/04/23 08:08:14;;;;;;;12.93;6.90;;;19.30;45.90;;;;;;5075763;28;20027;-79
2023/04/23 08:10:40;;;;;;;9.07;5.95;;;19.30;44.60;;;;;;5075323;28;20514;-79
2023/04/23 08:13:06;;;;;;;10.70;6.55;;;19.30;43.50;;;;;;5075675;28;20027;-79
2023/04/23 08:15:32;;;;;;;13.00;6.80;;;19.30;44.00;;;;;;5074357;28;20029;-79
2023/04/23 08:17:57;;;;;;;9.35;6.13;;;19.40;44.00;;;;;;5074754;28;20111;-79
2023/04/23 08:20:24;;;;;;;7.35;5.22;;;19.40;42.90;;;;;;5075943;28;20530;-79
2023/04/23 08:22:52;;;;;;;8.43;5.00;;;19.50;44.00;;;;;;5074322;28;20029;-79
2023/04/23 08:25:19;;;;;;;4.82;4.35;;;19.60;43.20;;;;;;5075604;28;20027;-79
2023/04/23 08:27:44;;;;;;;5.72;4.00;;;19.70;42.10;;;;;;5075238;28;20052;-79
2023/04/23 08:30:10;;;;;;;6.63;4.88;;;19.70;41.40;;;;;;5075367;28;20524;-79
2023/04/23 08:32:37;;;;;;;8.38;5.30;;;19.80;40.80;;;;;;5081746;28;20040;-79
2023/04/23 08:35:03;;;;;;;6.38;3.88;;;19.80;39.80;;;;;;5091035;28;20062;-79
2023/04/23 08:37:29;;;;;;;6.70;4.38;;;19.90;40.60;;;;;;5074569;28;20025;-79
2023/04/23 08:39:54;;;;;;;6.03;4.07;;;20.00;40.70;;;;;;5073151;28;20032;-77
2023/04/23 08:42:36;;;;;;;4.07;3.65;;;20.10;39.20;;;;;;5074622;28;20032;-80
2023/04/23 08:45:03;;;;;;;5.20;4.45;;;20.20;39.20;;;;;;5074351;28;20367;-78
2023/04/23 08:47:31;;;;;;;8.45;4.30;;;20.20;40.20;;;;;;5074322;28;20017;-78
2023/04/23 08:49:58;;;;;;;7.35;4.28;;;20.30;39.80;;;;;;5073143;28;20020;-78
2023/04/23 08:52:28;;;;;;;9.27;4.90;;;20.40;39.80;;;;;;5074319;28;20073;-79
2023/04/23 08:54:59;;;;;;;8.38;4.78;;;20.50;39.20;;;;;;5080490;28;20024;-79
2023/04/23 08:57:25;;;;;;;6.82;3.85;;;20.40;38.50;;;;;;5093189;28;20026;-78
2023/04/23 08:59:51;;;;;;;10.52;4.72;;;20.40;37.20;;;;;;5092898;28;20039;-79
2023/04/23 09:02:17;;;;;;;5.45;3.70;;;20.40;37.80;;;;;;5093272;28;20028;-79
2023/04/23 09:04:44;;;;;;;5.85;3.63;;;20.40;37.10;;;;;;5094922;28;20031;-79
2023/04/23 09:07:11;;;;;;;11.10;5.13;;;20.50;37.10;;;;;;5093376;28;20385;-79
2023/04/23 09:09:38;;;;;;;7.63;4.55;;;20.60;38.50;;;;;;5081035;28;20025;-78
2023/04/23 09:12:05;;;;;;;8.80;4.50;;;20.70;38.00;;;;;;5074327;28;20103;-79
2023/04/23 09:14:31;;;;;;;12.93;6.32;;;20.70;37.90;;;;;;5074728;28;20028;-79
2023/04/23 09:16:57;;;;;;;7.75;4.07;;;20.80;36.60;;;;;;5073119;28;20107;-79
2023/04/23 09:19:29;;;;;;;6.53;4.13;;;20.80;35.50;;;;;;5072771;28;20094;-79
2023/04/23 09:21:56;;;;;;;8.70;4.47;;;20.80;36.60;;;;;;5084392;28;20020;-79
2023/04/23 09:24:22;;;;;;;6.78;4.13;;;20.80;36.10;;;;;;5094416;28;20028;-79
2023/04/23 09:26:50;;;;;;;5.55;4.10;;;20.90;36.70;;;;;;5076616;28;20064;-79
2023/04/23 09:29:18;;;;;;;10.02;4.35;;;20.80;36.70;;;;;;5069689;28;20031;-79
2023/04/23 09:31:51;;;;;;;5.13;3.72;;;20.70;35.20;;;;;;5072054;28;20024;-79
2023/04/23 09:34:18;;;;;;;5.07;3.38;;;20.70;37.00;;;;;;5072650;28;20037;-78
2023/04/23 09:36:46;;;;;;;7.20;4.53;;;20.80;36.80;;;;;;5093406;28;20105;-79
2023/04/23 09:39:17;;;;;;;4.70;4.03;;;20.90;36.00;;;;;;5094063;28;20067;-79
2023/04/23 09:41:44;;;;;;;9.23;4.28;;;21.10;35.60;;;;;;5092681;28;20528;-79
2023/04/23 09:44:12;;;;;;;5.70;4.00;;;21.20;35.20;;;;;;5094030;28;20028;-79
2023/04/23 09:46:43;;;;;;;6.40;4.65;;;21.10;36.20;;;;;;5092490;28;20024;-79
2023/04/23 09:49:10;;;;;;;4.32;3.92;;;21.10;36.80;;;;;;5093971;28;20027;-79
2023/04/23 09:51:40;;;;;;;6.35;4.05;;;20.90;36.60;;;;;;5092592;28;20395;-79
2023/04/23 09:54:17;;;;;;;11.10;4.35;;;20.90;36.80;;;;;;5093853;28;20024;-79
2023/04/23 09:56:47;;;;;;;5.15;4.00;;;21.10;37.90;;;;;;5092414;28;20077;-80
2023/04/23 09:59:24;;;;;;;6.28;4.07;;;21.20;37.00;;;;;;5092435;28;20166;-80
2023/04/23 10:01:51;;;;;;;6.07;4.55;;;21.40;36.80;;;;;;5093548;28;20042;-79
2023/04/23 10:04:19;;;;;;;6.55;4.32;;;21.40;35.50;;;;;;5093680;28;20381;-79
2023/04/23 10:06:46;;;;;;;8.93;4.45;;;21.50;36.40;;;;;;5081476;28;20081;-78
2023/04/23 10:09:11;;;;;;;5.10;4.10;;;21.60;36.60;;;;;;5073506;28;20489;-79
2023/04/23 10:11:38;;;;;;;7.63;4.22;;;21.70;36.30;;;;;;5072691;28;20100;-78
2023/04/23 10:14:03;;;;;;;7.95;4.15;;;21.60;36.10;;;;;;5071889;28;20012;-78
2023/04/23 10:16:29;;;;;;;4.53;3.60;;;21.60;36.20;;;;;;5071858;28;20044;-79
2023/04/23 10:19:00;;;;;;;4.20;3.80;;;21.70;37.00;;;;;;5073080;28;20441;-79
2023/04/23 10:21:30;;;;;;;8.75;4.53;;;21.70;36.50;;;;;;5072658;28;20089;-79
2023/04/23 10:24:00;;;;;;;5.30;3.42;;;21.80;38.20;;;;;;5072928;28;20074;-78
2023/04/23 10:26:27;;;;;;;3.83;3.47;;;22.00;37.50;;;;;;5071651;28;20044;-79
2023/04/23 10:28:55;;;;;;;8.02;4.47;;;21.90;36.40;;;;;;5071559;28;20022;-79
2023/04/23 10:31:22;;;;;;;4.07;3.58;;;21.60;35.20;;;;;;5071621;28;20044;-79
2023/04/23 10:33:49;;;;;;;4.72;3.63;;;21.70;36.40;;;;;;5070969;28;20044;-79
2023/04/23 10:36:16;;;;;;;5.70;3.60;;;21.80;35.80;;;;;;5071718;28;20447;-79
2023/04/23 10:38:42;;;;;;;5.15;3.30;;;21.80;36.20;;;;;;5071967;28;20036;-79
2023/04/23 10:41:08;;;;;;;6.03;3.80;;;21.70;34.30;;;;;;5072930;28;20016;-79
2023/04/23 10:43:35;;;;;;;4.63;4.10;;;21.80;35.00;;;;;;5071315;28;20020;-79
2023/04/23 10:46:01;;;;;;;6.78;4.32;;;21.80;35.20;;;;;;5071271;28;20374;-79
2023/04/23 10:49:06;;;;;;;4.43;3.88;;;22.00;36.20;;;;;;5071712;28;20132;-80
2023/04/23 10:51:33;;;;;;;5.35;4.13;;;22.10;35.10;;;;;;5069511;28;20020;-79
2023/04/23 10:53:59;;;;;;;4.35;3.70;;;22.20;35.70;;;;;;5070748;28;20021;-80
2023/04/23 10:56:27;;;;;;;7.45;4.00;;;22.30;33.30;;;;;;5070633;28;20036;-80
2023/04/23 10:58:52;;;;;;;7.32;4.18;;;22.30;34.60;;;;;;5068082;28;20561;-80
2023/04/23 11:01:20;;;;;;;5.93;3.13;;;22.30;35.20;;;;;;5070306;28;20017;-80
2023/04/23 11:03:47;;;;;;;3.90;3.50;;;22.40;35.00;;;;;;5069551;28;20104;-80
2023/04/23 11:06:47;;;;;;;6.20;3.75;;;22.40;33.50;;;;;;5071016;28;20027;-81
2023/04/23 11:09:37;;;;;;;6.30;3.67;;;22.50;34.60;;;;;;5072797;28;20074;-81
2023/04/23 11:12:09;;;;;;;4.45;3.47;;;22.50;34.30;;;;;;5070088;28;20016;-81
2023/04/23 11:14:44;;;;;;;4.40;3.10;;;22.50;32.40;;;;;;5071000;28;20020;-81
2023/04/23 11:17:12;;;;;;;3.58;3.25;;;22.40;32.90;;;;;;5071351;28;20058;-80
2023/04/23 11:19:39;;;;;;;4.28;3.85;;;22.30;33.20;;;;;;5070995;28;21321;-80
2023/04/23 11:22:12;;;;;;;7.07;3.50;;;22.40;33.90;;;;;;5071153;28;20095;-80
2023/04/23 11:24:41;;;;;;;6.03;3.80;;;22.50;34.20;;;;;;5071811;28;20017;-81
2023/04/23 11:27:18;;;;;;;4.10;3.70;;;22.70;35.10;;;;;;5073589;28;20020;-81
2023/04/23 11:29:45;;;;;;;5.80;3.55;;;22.60;32.90;;;;;;5074807;28;20028;-79
2023/04/23 11:32:13;;;;;;;4.20;3.50;;;22.70;32.10;;;;;;5073859;28;20037;-79
2023/04/23 11:34:44;;;;;;;5.72;3.70;;;22.70;31.80;;;;;;5070298;28;20643;-79
2023/04/23 11:37:11;;;;;;;4.90;3.85;;;22.70;33.70;;;;;;5073754;28;20532;-78
2023/04/23 11:39:39;;;;;;;4.88;3.70;;;22.70;32.70;;;;;;5073987;28;20028;-79
2023/04/23 11:42:09;;;;;;;5.50;3.72;;;22.80;32.80;;;;;;5074058;28;20021;-79
2023/04/23 11:44:37;;;;;;;8.45;3.15;;;22.80;32.80;;;;;;5073020;28;20023;-80
2023/04/23 11:47:03;;;;;;;6.18;5.72;;;22.40;30.80;;;;;;5071751;28;20712;-80
2023/04/23 11:49:28;;;;;;;5.45;3.28;;;22.30;31.20;;;;;;5072971;28;20032;-79
2023/04/23 11:51:57;;;;;;;4.40;3.75;;;22.40;32.00;;;;;;5071140;28;20051;-79
2023/04/23 11:54:28;;;;;;;6.50;3.55;;;22.50;32.40;;;;;;5072042;28;20023;-80
2023/04/23 11:56:55;;;;;;;5.13;3.65;;;22.50;32.10;;;;;;5074206;28;20032;-79
2023/04/23 11:59:21;;;;;;;8.23;4.60;;;22.60;32.30;;;;;;5074247;28;20041;-79
2023/04/23 12:01:54;;;;;;;3.28;2.97;;;22.80;31.90;;;;;;5075836;28;20043;-79
2023/04/23 12:04:22;;;;;;;7.72;3.50;;;22.80;32.60;;;;;;5075869;28;20106;-80
2023/04/23 12:06:50;;;;;;;4.63;3.97;;;22.80;32.70;;;;;;5074405;28;20485;-80
2023/04/23 12:09:17;;;;;;;3.80;3.40;;;22.90;32.70;;;;;;5075846;28;20012;-79
2023/04/23 12:11:44;;;;;;;4.72;3.50;;;22.80;32.00;;;;;;5067731;28;20044;-79
2023/04/23 12:14:11;;;;;;;3.13;2.88;;;22.60;30.90;;;;;;5054736;28;20040;-80
2023/04/23 12:16:45;;;;;;;3.10;2.80;;;22.60;31.20;;;;;;5054343;28;20374;-79
2023/04/23 12:19:19;;;;;;;7.78;3.42;;;22.60;31.30;;;;;;5069952;28;20049;-79
2023/04/23 12:21:59;;;;;;;4.38;3.13;;;22.80;32.10;;;;;;5053725;28;20029;-78
2023/04/23 12:24:28;;;;;;;6.47;3.10;;;22.60;30.70;;;;;;5053132;28;20037;-79
2023/04/23 12:26:57;;;;;;;4.65;3.78;;;22.50;30.20;;;;;;5072899;28;20036;-79
2023/04/23 12:29:23;;;;;;;3.40;3.10;;;22.60;30.20;;;;;;5073217;28;20035;-79
2023/04/23 12:31:51;;;;;;;5.28;3.38;;;22.70;31.30;;;;;;5073942;28;20425;-79
2023/04/23 12:34:18;;;;;;;4.57;2.95;;;22.80;31.50;;;;;;5072346;28;20052;-79
2023/04/23 12:36:49;;;;;;;5.32;3.58;;;22.80;30.60;;;;;;5073432;28;20031;-79
2023/04/23 12:39:18;;;;;;;4.05;3.30;;;22.70;31.40;;;;;;5072958;28;20489;-77
2023/04/23 12:41:44;;;;;;;4.32;2.85;;;22.80;31.00;;;;;;5072945;28;20031;-78